Time;durP1;ratioP1;P1;durP2;ratioP2;P2;SDS_P1;SDS_P2;PMS_P1;PMS_P2;Temp;Humidity;BMP_temperature;BMP_pressure;BME280_temperature;BME280_humidity;BME280_pressure;Samples;Min_cycle;Max_cycle;Signal;HPM_P1;HPM_P2
2021/10/28 00:13:28;;;;;;;;;;;;;;;;;;5055832;28;19925;-78
2021/10/28 00:15:57;;;;;;;;;;;;;;;;;;5071439;28;19970;-78
2021/10/28 00:18:39;;;;;;;;;;;;;;;;;;5071449;28;19940;-78
2021/10/28 00:21:08;;;;;;;;;;;;;;;;;;5071553;28;20019;-78
2021/10/28 00:23:42;;;;;;;;;;;;;;;;;;5071291;28;20337;-78
2021/10/28 00:26:10;;;;;;;;;;;;;;;;;;5071459;28;19929;-79
2021/10/28 00:28:37;;;;;;;;;;;;;;;;;;5070920;28;19936;-78
2021/10/28 00:31:05;;;;;;;;;;;;;;;;;;5071429;28;19932;-79
2021/10/28 00:33:33;;;;;;;;;;;;;;;;;;5071611;28;19925;-78
2021/10/28 00:36:00;;;;;;;;;;;;;;;;;;5071222;28;19934;-79
2021/10/28 00:38:29;;;;;;;;;;;;;;;;;;5071143;28;20365;-80
2021/10/28 00:40:57;;;;;;;;;;;;;;;;;;5071476;28;20002;-79
2021/10/28 00:43:24;;;;;;;;;;;;;;;;;;5071152;28;19932;-79
2021/10/28 00:45:51;;;;;;;;;;;;;;;;;;5071205;28;20314;-79
2021/10/28 00:48:19;;;;;;;;;;;;;;;;;;5070928;28;19934;-79
2021/10/28 00:50:46;;;;;;;;;;;;;;;;;;5071370;28;19924;-79
2021/10/28 00:53:13;;;;;;;;;;;;;;;;;;5071389;28;19944;-79
2021/10/28 00:55:42;;;;;;;;;;;;;;;;;;5071319;28;19924;-79
2021/10/28 00:58:09;;;;;;;;;;;;;;;;;;5071182;28;19928;-79
2021/10/28 01:00:36;;;;;;;;;;;;;;;;;;5071168;28;19924;-78
2021/10/28 01:03:03;;;;;;;;;;;;;;;;;;5071113;28;19940;-78
2021/10/28 01:05:31;;;;;;;;;;;;;;;;;;5071483;28;19935;-78
2021/10/28 01:07:58;;;;;;;;;;;;;;;;;;5070742;28;19924;-78
2021/10/28 01:10:25;;;;;;;;;;;;;;;;;;5071286;28;20357;-77
2021/10/28 01:12:54;;;;;;;;;;;;;;;;;;5070814;28;19935;-79
2021/10/28 01:15:21;;;;;;;;;;;;;;;;;;5071164;28;19924;-77
2021/10/28 01:17:48;;;;;;;;;;;;;;;;;;5070586;28;19951;-78
2021/10/28 01:20:16;;;;;;;;;;;;;;;;;;5071056;28;19925;-78
2021/10/28 01:22:44;;;;;;;;;;;;;;;;;;5070990;28;20400;-79
2021/10/28 01:25:11;;;;;;;;;;;;;;;;;;5071187;28;20324;-79
2021/10/28 01:27:39;;;;;;;;;;;;;;;;;;5071422;28;19929;-77
2021/10/28 01:30:07;;;;;;;;;;;;;;;;;;5071720;28;20265;-78
2021/10/28 01:32:35;;;;;;;;;;;;;;;;;;5071269;28;19928;-77
2021/10/28 01:35:02;;;;;;;;;;;;;;;;;;5071819;28;19943;-78
2021/10/28 01:37:31;;;;;;;;;;;;;;;;;;5071185;28;19939;-78
2021/10/28 01:39:58;;;;;;;;;;;;;;;;;;5072255;28;19936;-78
2021/10/28 01:42:25;;;;;;;;;;;;;;;;;;5075302;28;20403;-78
2021/10/28 01:44:52;;;;;;;;;;;;;;;;;;5074868;28;19951;-77
2021/10/28 01:47:19;;;;;;;;;;;;;;;;;;5074891;28;20026;-79
2021/10/28 01:49:46;;;;;;;;;;;;;;;;;;5073789;28;19928;-78
2021/10/28 01:52:14;;;;;;;;;;;;;;;;;;5074480;28;20389;-77
2021/10/28 01:54:42;;;;;;;;;;;;;;;;;;5073653;28;20366;-78
2021/10/28 01:57:16;;;;;;;;;;;;;;;;;;5074445;28;19959;-78
2021/10/28 01:59:43;;;;;;;;;;;;;;;;;;5073996;28;20245;-79
2021/10/28 02:02:10;;;;;;;;;;;;;;;;;;5073889;28;19935;-79
2021/10/28 02:04:37;;;;;;;;;;;;;;;;;;5074551;28;19925;-77
2021/10/28 02:07:04;;;;;;;;;;;;;;;;;;5074028;28;20329;-80
2021/10/28 02:09:32;;;;;;;;;;;;;;;;;;5074209;28;19970;-78
2021/10/28 02:12:01;;;;;;;;;;;;;;;;;;5073882;28;19928;-77
2021/10/28 02:14:28;;;;;;;;;;;;;;;;;;5073621;28;19925;-78
2021/10/28 02:16:55;;;;;;;;;;;;;;;;;;5074031;28;19929;-79
2021/10/28 02:19:23;;;;;;;;;;;;;;;;;;5074111;28;19928;-77
2021/10/28 02:21:50;;;;;;;;;;;;;;;;;;5073783;28;19928;-79
2021/10/28 02:24:17;;;;;;;;;;;;;;;;;;5073799;28;19924;-78
2021/10/28 02:26:44;;;;;;;;;;;;;;;;;;5074090;28;19929;-78
2021/10/28 02:29:13;;;;;;;;;;;;;;;;;;5074114;28;19935;-79
2021/10/28 02:31:43;;;;;;;;;;;;;;;;;;5073718;28;19928;-78
2021/10/28 02:34:11;;;;;;;;;;;;;;;;;;5074090;28;20011;-78
2021/10/28 02:36:38;;;;;;;;;;;;;;;;;;5073227;28;19929;-78
2021/10/28 02:39:05;;;;;;;;;;;;;;;;;;5074659;28;19944;-77
2021/10/28 02:41:32;;;;;;;;;;;;;;;;;;5074101;28;19928;-78
2021/10/28 02:43:59;;;;;;;;;;;;;;;;;;5073884;28;20304;-77
2021/10/28 02:46:27;;;;;;;;;;;;;;;;;;5073412;28;19924;-77
2021/10/28 02:48:54;;;;;;;;;;;;;;;;;;5073036;28;20015;-78
2021/10/28 02:51:22;;;;;;;;;;;;;;;;;;5073222;28;20373;-79
2021/10/28 02:53:49;;;;;;;;;;;;;;;;;;5073180;28;20349;-78
2021/10/28 02:56:16;;;;;;;;;;;;;;;;;;5073371;28;19924;-77
2021/10/28 02:58:43;;;;;;;;;;;;;;;;;;5073776;28;19939;-78
2021/10/28 03:01:10;;;;;;;;;;;;;;;;;;5077561;28;19932;-79
2021/10/28 03:03:39;;;;;;;;;;;;;;;;;;5072983;28;19940;-78
2021/10/28 03:06:07;;;;;;;;;;;;;;;;;;5072738;28;19959;-78
2021/10/28 03:08:34;;;;;;;;;;;;;;;;;;5072787;28;19938;-78
2021/10/28 03:11:05;;;;;;;;;;;;;;;;;;5072929;28;20311;-78
2021/10/28 03:13:33;;;;;;;;;;;;;;;;;;5073262;28;19983;-78
2021/10/28 03:16:10;;;;;;;;;;;;;;;;;;5072851;28;20015;-78
2021/10/28 03:26:53;;;;;;;;;;;;;;;;;;5072789;28;20282;-78
2021/10/28 03:29:20;;;;;;;;;;;;;;;;;;5072626;28;19928;-78
2021/10/28 03:31:47;;;;;;;;;;;;;;;;;;5072898;28;19935;-77
2021/10/28 03:34:15;;;;;;;;;;;;;;;;;;5072770;28;20350;-78
2021/10/28 03:36:48;;;;;;;;;;;;;;;;;;5073079;28;20259;-78
2021/10/28 03:39:29;;;;;;;;;;;;;;;;;;5072727;28;19928;-79
2021/10/28 04:01:51;;;;;;;;;;;;;;;;;;5072021;28;19975;-78
2021/10/28 04:21:00;;;;;;;;;;;;;;;;;;5040519;28;19951;-78
2021/10/28 04:28:54;;;;;;;;;;;;;;;;;;5048428;28;19932;-78
2021/10/28 04:31:23;;;;;;;;;;;;;;;;;;5071709;28;20029;-78
2021/10/28 04:33:50;;;;;;;;;;;;;;;;;;5071352;28;19929;-79
2021/10/28 04:36:17;;;;;;;;;;;;;;;;;;5069563;28;19961;-79
2021/10/28 04:38:46;;;;;;;;;;;;;;;;;;5066961;28;19925;-79
2021/10/28 04:41:13;;;;;;;;;;;;;;;;;;5067058;28;19932;-80
2021/10/28 04:43:40;;;;;;;;;;;;;;;;;;5071549;28;19940;-78
2021/10/28 04:46:07;;;;;;;;;;;;;;;;;;5051880;28;19928;-78
2021/10/28 04:48:34;;;;;;;;;;;;;;;;;;5051258;28;19928;-80
2021/10/28 04:51:01;;;;;;;;;;;;;;;;;;5051600;28;19924;-78
2021/10/28 04:53:29;;;;;;;;;;;;;;;;;;5048250;28;19924;-78
2021/10/28 04:55:57;;;;;;;;;;;;;;;;;;5053830;28;20027;-78
2021/10/28 04:58:24;;;;;;;;;;;;;;;;;;5055177;28;20679;-78
2021/10/28 05:00:52;;;;;;;;;;;;;;;;;;5069488;28;19935;-78
2021/10/28 05:03:19;;;;;;;;;;;;;;;;;;5070675;28;19924;-79
2021/10/28 05:05:47;;;;;;;;;;;;;;;;;;5070460;28;20364;-78
2021/10/28 05:08:14;;;;;;;;;;;;;;;;;;5071129;28;19928;-78
2021/10/28 05:10:42;;;;;;;;;;;;;;;;;;5071288;28;19924;-78
2021/10/28 05:13:13;;;;;;;;;;;;;;;;;;5071375;28;19924;-79
2021/10/28 05:15:43;;;;;;;;;;;;;;;;;;5075841;28;19950;-78
2021/10/28 05:18:11;;;;;;;;;;;;;;;;;;5066803;28;20338;-77
2021/10/28 05:20:38;;;;;;;;;;;;;;;;;;5060879;28;20405;-79
2021/10/28 05:23:05;;;;;;;;;;;;;;;;;;5069381;28;19939;-77
2021/10/28 05:25:32;;;;;;;;;;;;;;;;;;5072494;28;19925;-78
2021/10/28 05:28:00;;;;;;;;;;;;;;;;;;5072904;28;19948;-77
2021/10/28 05:30:29;;;;;;;;;;;;;;;;;;5071833;28;19928;-77
2021/10/28 05:32:56;;;;;;;;;;;;;;;;;;5073259;28;19929;-79
2021/10/28 05:35:24;;;;;;;;;;;;;;;;;;5073256;28;19929;-82
2021/10/28 05:37:51;;;;;;;;;;;;;;;;;;5051461;28;20208;-79
2021/10/28 05:40:18;;;;;;;;;;;;;;;;;;5059358;28;19924;-79
2021/10/28 05:42:48;;;;;;;;;;;;;;;;;;5072765;28;19934;-79
2021/10/28 05:45:15;;;;;;;;;;;;;;;;;;5072129;28;19939;-80
2021/10/28 05:47:44;;;;;;;;;;;;;;;;;;5071641;28;20357;-78
2021/10/28 05:50:14;;;;;;;;;;;;;;;;;;5072285;28;19935;-78
2021/10/28 05:52:41;;;;;;;;;;;;;;;;;;5070828;28;20361;-78
2021/10/28 05:55:10;;;;;;;;;;;;;;;;;;5071100;28;20334;-77
2021/10/28 05:57:37;;;;;;;;;;;;;;;;;;5071335;28;19928;-80
2021/10/28 06:00:07;;;;;;;;;;;;;;;;;;5071202;28;19960;-78
2021/10/28 06:02:34;;;;;;;;;;;;;;;;;;5071013;28;19938;-78
2021/10/28 06:05:03;;;;;;;;;;;;;;;;;;5071849;28;19932;-78
2021/10/28 06:07:30;;;;;;;;;;;;;;;;;;5071074;28;19939;-78
2021/10/28 06:09:57;;;;;;;;;;;;;;;;;;5070109;28;19939;-78
2021/10/28 06:12:26;;;;;;;;;;;;;;;;;;5067230;28;19929;-79
2021/10/28 06:14:55;;;;;;;;;;;;;;;;;;5068596;28;19928;-80
2021/10/28 06:17:30;;;;;;;;;;;;;;;;;;5069823;28;19925;-77
2021/10/28 06:19:59;;;;;;;;;;;;;;;;;;5070330;28;20031;-79
2021/10/28 06:22:27;;;;;;;;;;;;;;;;;;5070633;28;20023;-77
2021/10/28 06:24:55;;;;;;;;;;;;;;;;;;5069660;28;19954;-78
2021/10/28 06:27:22;;;;;;;;;;;;;;;;;;5065726;28;19928;-78
2021/10/28 06:29:49;;;;;;;;;;;;;;;;;;5068476;28;20408;-78
2021/10/28 06:32:16;;;;;;;;;;;;;;;;;;5070892;28;20015;-78
2021/10/28 06:34:45;;;;;;;;;;;;;;;;;;5071103;28;20653;-78
2021/10/28 06:37:13;;;;;;;;;;;;;;;;;;5071426;28;19977;-79
2021/10/28 06:39:42;;;;;;;;;;;;;;;;;;5069777;28;19928;-79
2021/10/28 06:42:13;;;;;;;;;;;;;;;;;;5071216;28;19940;-78
2021/10/28 06:44:41;;;;;;;;;;;;;;;;;;5069865;28;20631;-78
2021/10/28 06:47:08;;;;;;;;;;;;;;;;;;5070343;28;19928;-78
2021/10/28 06:49:38;;;;;;;;;;;;;;;;;;5071188;28;20350;-77
2021/10/28 06:52:09;;;;;;;;;;;;;;;;;;5070479;28;19935;-80
2021/10/28 06:54:36;;;;;;;;;;;;;;;;;;5070939;28;19924;-78
2021/10/28 07:02:47;;;;;;;;;;;;;;;;;;5040164;28;20031;-79
2021/10/28 07:05:14;;;;;;;;;;;;;;;;;;5049148;28;19975;-80
2021/10/28 07:07:41;;;;;;;;;;;;;;;;;;5062809;28;19924;-77
2021/10/28 07:10:11;;;;;;;;;;;;;;;;;;5071505;28;19924;-77
2021/10/28 07:12:54;;;;;;;;;;;;;;;;;;5068648;28;20206;-79
2021/10/28 07:15:24;;;;;;;;;;;;;;;;;;5047430;28;19976;-77
2021/10/28 07:26:35;;;;;;;;;;;;;;;;;;5059862;28;19994;-79
2021/10/28 07:34:51;;;;;;;;;;;;;;;;;;5069228;28;19931;-79
2021/10/28 07:59:37;;;;;;;;;;;;;;;;;;5068688;28;19935;-78
2021/10/28 08:05:22;;;;;;;;;;;;;;;;;;5067105;28;19977;-79
2021/10/28 08:13:52;;;;;;;;;;;;;;;;;;5062069;28;19961;-79
2021/10/28 08:19:26;;;;;;;;;;;;;;;;;;5032107;28;19928;-80
2021/10/28 08:21:55;;;;;;;;;;;;;;;;;;5067389;28;20333;-80
2021/10/28 08:30:04;;;;;;;;;;;;;;;;;;5063445;28;19968;-78
2021/10/28 08:32:31;;;;;;;;;;;;;;;;;;5069057;28;20285;-80
2021/10/28 08:35:01;;;;;;;;;;;;;;;;;;5068155;28;19928;-78
2021/10/28 08:37:34;;;;;;;;;;;;;;;;;;5067715;28;20099;-79
2021/10/28 08:40:02;;;;;;;;;;;;;;;;;;5068363;28;19939;-79
2021/10/28 08:42:29;;;;;;;;;;;;;;;;;;5068894;28;19928;-78
2021/10/28 08:44:59;;;;;;;;;;;;;;;;;;5069313;28;19925;-78
2021/10/28 08:47:27;;;;;;;;;;;;;;;;;;5070439;28;19929;-78
2021/10/28 08:49:57;;;;;;;;;;;;;;;;;;5071733;28;19928;-78
2021/10/28 08:52:42;;;;;;;;;;;;;;;;;;5072196;28;20381;-78
2021/10/28 08:55:23;;;;;;;;;;;;;;;;;;5071777;28;19932;-79
2021/10/28 09:26:14;;;;;;;;;;;;;;;;;;5051133;28;20012;-79
2021/10/28 09:28:47;;;;;;;;;;;;;;;;;;5068114;28;19936;-78
2021/10/28 09:31:16;;;;;;;;;;;;;;;;;;5071230;28;19967;-78
2021/10/28 09:33:54;;;;;;;;;;;;;;;;;;5071226;28;19935;-78
2021/10/28 09:45:01;;;;;;;;;;;;;;;;;;5070374;28;19939;-78
2021/10/28 09:47:35;;;;;;;;;;;;;;;;;;5070273;28;19982;-79
2021/10/28 09:50:10;;;;;;;;;;;;;;;;;;5070324;28;19931;-78
2021/10/28 09:52:47;;;;;;;;;;;;;;;;;;5070240;28;19924;-78
2021/10/28 09:58:02;;;;;;;;;;;;;;;;;;5070855;28;19951;-77
2021/10/28 10:00:39;;;;;;;;;;;;;;;;;;5069591;28;19935;-77
2021/10/28 10:03:11;;;;;;;;;;;;;;;;;;5070157;28;20365;-77
2021/10/28 10:05:39;;;;;;;;;;;;;;;;;;5065495;28;19929;-77
2021/10/28 10:08:07;;;;;;;;;;;;;;;;;;5070464;28;20520;-77
2021/10/28 10:10:35;;;;;;;;;;;;;;;;;;5062843;28;20299;-77
2021/10/28 10:13:03;;;;;;;;;;;;;;;;;;5058566;28;19948;-80
2021/10/28 10:15:31;;;;;;;;;;;;;;;;;;5070379;28;19990;-79
2021/10/28 10:18:00;;;;;;;;;;;;;;;;;;5070227;28;19925;-78
2021/10/28 10:20:33;;;;;;;;;;;;;;;;;;5070526;28;19929;-76
2021/10/28 10:23:16;;;;;;;;;;;;;;;;;;5069955;28;19932;-79
2021/10/28 10:25:53;;;;;;;;;;;;;;;;;;5069749;28;19928;-77
2021/10/28 11:23:49;;;;;;;;;;;;;;;;;;5073309;28;20074;-78
2021/10/28 11:26:42;;;;;;;;;;;;;;;;;;5069364;28;19929;-79
2021/10/28 11:29:24;;;;;;;;;;;;;;;;;;5070533;28;19928;-79
2021/10/28 11:32:24;;;;;;;;;;;;;;;;;;5068028;28;20017;-79
2021/10/28 12:20:15;;;;;;;;;;;;;;;;;;5051492;28;19940;-81
2021/10/28 12:43:26;;;;;;;;;;;;;;;;;;5078090;28;19951;-81
2021/10/28 12:45:55;;;;;;;;;;;;;;;;;;5068942;28;19935;-78
2021/10/28 12:48:50;;;;;;;;;;;;;;;;;;5067843;28;19928;-79
2021/10/28 12:51:31;;;;;;;;;;;;;;;;;;5069659;28;19935;-78
2021/10/28 12:56:51;;;;;;;;;;;;;;;;;;5068677;28;19938;-81
2021/10/28 13:02:32;;;;;;;;;;;;;;;;;;5044690;28;20019;-79
2021/10/28 13:05:36;;;;;;;;;;;;;;;;;;5066301;28;19970;-81
2021/10/28 13:48:02;;;;;;;;;;;;;;;;;;5070808;28;19975;-79
2021/10/28 13:49:59;;;;;;;;;;;;;;;;;;5050469;28;20256;-79
2021/10/28 13:52:50;;;;;;;;;;;;;;;;;;5051669;28;20019;-78
2021/10/28 13:55:40;;;;;;;;;;;;;;;;;;5051441;28;19959;-78
2021/10/28 14:15:09;;;;;;;;;;;;;;;;;;5034250;28;20050;-79
2021/10/28 14:20:53;;;;;;;;;;;;;;;;;;5056626;28;19952;-78
2021/10/28 14:23:33;;;;;;;;;;;;;;;;;;5053966;28;19929;-78
2021/10/28 15:29:58;;;;;;;;;;;;;;;;;;5073096;28;20327;-77
2021/10/28 15:35:19;;;;;;;;;;;;;;;;;;5071861;28;20426;-77
2021/10/28 15:40:39;;;;;;;;;;;;;;;;;;5059079;28;19936;-77
2021/10/28 15:43:25;;;;;;;;;;;;;;;;;;5072682;28;20019;-79
2021/10/28 15:52:12;;;;;;;;;;;;;;;;;;4990313;28;20056;-78
2021/10/28 15:55:06;;;;;;;;;;;;;;;;;;4990461;28;20004;-78
2021/10/28 16:00:31;;;;;;;;;;;;;;;;;;5030706;28;20258;-78
2021/10/28 16:22:21;;;;;;;;;;;;;;;;;;4996947;28;20322;-78
2021/10/28 16:24:48;;;;;;;;;;;;;;;;;;5071278;28;19928;-78
2021/10/28 16:27:15;;;;;;;;;;;;;;;;;;5071837;28;19928;-78
2021/10/28 16:29:42;;;;;;;;;;;;;;;;;;5073122;28;19924;-77
2021/10/28 16:32:09;;;;;;;;;;;;;;;;;;5071279;28;19931;-78
2021/10/28 16:34:36;;;;;;;;;;;;;;;;;;5071041;28;19928;-78
2021/10/28 16:37:04;;;;;;;;;;;;;;;;;;5070995;28;19924;-77
2021/10/28 16:39:32;;;;;;;;;;;;;;;;;;5071262;28;19928;-77
2021/10/28 16:41:59;;;;;;;;;;;;;;;;;;5071420;28;20306;-78
2021/10/28 16:44:27;;;;;;;;;;;;;;;;;;5072218;28;19939;-78
2021/10/28 16:46:55;;;;;;;;;;;;;;;;;;5071928;28;20046;-80
2021/10/28 16:49:23;;;;;;;;;;;;;;;;;;5071027;28;20297;-77
2021/10/28 16:51:50;;;;;;;;;;;;;;;;;;5071307;28;19928;-79
2021/10/28 16:54:18;;;;;;;;;;;;;;;;;;5072058;28;19932;-78
2021/10/28 16:56:47;;;;;;;;;;;;;;;;;;5071387;28;19933;-78
2021/10/28 16:59:14;;;;;;;;;;;;;;;;;;5071502;28;19940;-78
2021/10/28 17:01:41;;;;;;;;;;;;;;;;;;5071889;28;19925;-77
2021/10/28 17:04:09;;;;;;;;;;;;;;;;;;5073134;28;19935;-77
2021/10/28 17:06:36;;;;;;;;;;;;;;;;;;5071816;28;20365;-78
2021/10/28 17:09:06;;;;;;;;;;;;;;;;;;5072432;28;19936;-77
2021/10/28 17:11:34;;;;;;;;;;;;;;;;;;5075488;28;19958;-79
2021/10/28 17:14:03;;;;;;;;;;;;;;;;;;5066293;28;20261;-78
2021/10/28 17:16:31;;;;;;;;;;;;;;;;;;5075655;28;19928;-77
2021/10/28 17:18:58;;;;;;;;;;;;;;;;;;5074469;28;19924;-79
2021/10/28 17:21:25;;;;;;;;;;;;;;;;;;5075684;28;19939;-77
2021/10/28 17:24:00;;;;;;;;;;;;;;;;;;5075656;28;20276;-78
2021/10/28 17:26:27;;;;;;;;;;;;;;;;;;5075378;28;20342;-79
2021/10/28 17:28:59;;;;;;;;;;;;;;;;;;5075801;28;19928;-79
2021/10/28 17:31:28;;;;;;;;;;;;;;;;;;5075336;28;19931;-79
2021/10/28 17:33:56;;;;;;;;;;;;;;;;;;5075348;28;19928;-78
2021/10/28 17:36:23;;;;;;;;;;;;;;;;;;5075260;28;19925;-77
2021/10/28 17:38:51;;;;;;;;;;;;;;;;;;5077165;28;19932;-78
2021/10/28 17:41:18;;;;;;;;;;;;;;;;;;5077597;28;20269;-80
2021/10/28 17:43:48;;;;;;;;;;;;;;;;;;5075899;28;19935;-80
2021/10/28 17:46:16;;;;;;;;;;;;;;;;;;5076163;28;20266;-77
2021/10/28 17:48:44;;;;;;;;;;;;;;;;;;5075372;28;19925;-79
2021/10/28 17:51:12;;;;;;;;;;;;;;;;;;5076275;28;19928;-80
2021/10/28 17:53:39;;;;;;;;;;;;;;;;;;5076011;28;20027;-77
2021/10/28 17:56:07;;;;;;;;;;;;;;;;;;5075100;28;19976;-77
2021/10/28 17:58:34;;;;;;;;;;;;;;;;;;5076174;28;19924;-77
2021/10/28 18:01:01;;;;;;;;;;;;;;;;;;5074688;28;19924;-79
2021/10/28 18:03:28;;;;;;;;;;;;;;;;;;5074726;28;19925;-78
2021/10/28 18:05:57;;;;;;;;;;;;;;;;;;5075857;28;19928;-83
2021/10/28 18:08:24;;;;;;;;;;;;;;;;;;5075042;28;20246;-79
2021/10/28 18:10:51;;;;;;;;;;;;;;;;;;5075826;28;19931;-82
2021/10/28 18:13:19;;;;;;;;;;;;;;;;;;5074566;28;19932;-77
2021/10/28 18:15:46;;;;;;;;;;;;;;;;;;5076942;28;19928;-77
2021/10/28 18:18:13;;;;;;;;;;;;;;;;;;5075292;28;20179;-78
2021/10/28 18:20:41;;;;;;;;;;;;;;;;;;5075338;28;19939;-77
2021/10/28 18:23:09;;;;;;;;;;;;;;;;;;5073934;28;19951;-77
2021/10/28 18:25:36;;;;;;;;;;;;;;;;;;5075270;28;19935;-77
2021/10/28 18:28:04;;;;;;;;;;;;;;;;;;5074908;28;19924;-77
2021/10/28 18:30:35;;;;;;;;;;;;;;;;;;5074893;28;19935;-77
2021/10/28 18:33:03;;;;;;;;;;;;;;;;;;5073968;28;20353;-78
2021/10/28 18:35:30;;;;;;;;;;;;;;;;;;5074572;28;19925;-78
2021/10/28 18:37:57;;;;;;;;;;;;;;;;;;5073912;28;19986;-78
2021/10/28 18:40:27;;;;;;;;;;;;;;;;;;5076892;28;19928;-77
2021/10/28 18:42:54;;;;;;;;;;;;;;;;;;5074784;28;20294;-78
2021/10/28 18:45:21;;;;;;;;;;;;;;;;;;5075748;28;20773;-77
2021/10/28 18:47:49;;;;;;;;;;;;;;;;;;5073841;28;19932;-77
2021/10/28 18:50:16;;;;;;;;;;;;;;;;;;5073719;28;19925;-76
2021/10/28 18:52:43;;;;;;;;;;;;;;;;;;5074111;28;19925;-75
2021/10/28 18:55:11;;;;;;;;;;;;;;;;;;5073779;28;19979;-79
2021/10/28 18:57:39;;;;;;;;;;;;;;;;;;5073129;28;19924;-77
2021/10/28 19:00:08;;;;;;;;;;;;;;;;;;5073032;28;19928;-78
2021/10/28 19:02:36;;;;;;;;;;;;;;;;;;5072442;28;19928;-77
2021/10/28 19:05:04;;;;;;;;;;;;;;;;;;5073007;28;19925;-78
2021/10/28 19:07:31;;;;;;;;;;;;;;;;;;5072944;28;19928;-76
2021/10/28 19:09:58;;;;;;;;;;;;;;;;;;5072535;28;19931;-78
2021/10/28 19:12:26;;;;;;;;;;;;;;;;;;5072320;28;19935;-75
2021/10/28 19:14:55;;;;;;;;;;;;;;;;;;5072414;28;19940;-77
2021/10/28 19:17:22;;;;;;;;;;;;;;;;;;5072970;28;19929;-77
2021/10/28 19:19:49;;;;;;;;;;;;;;;;;;5072291;28;19955;-78
2021/10/28 19:22:16;;;;;;;;;;;;;;;;;;5072573;28;20392;-77
2021/10/28 19:24:43;;;;;;;;;;;;;;;;;;5072413;28;20030;-77
2021/10/28 19:27:10;;;;;;;;;;;;;;;;;;5072606;28;19932;-76
2021/10/28 19:29:43;;;;;;;;;;;;;;;;;;5072226;28;19928;-77
2021/10/28 19:32:16;;;;;;;;;;;;;;;;;;5072602;28;19925;-77
2021/10/28 19:34:43;;;;;;;;;;;;;;;;;;5072231;28;19935;-78
2021/10/28 19:37:16;;;;;;;;;;;;;;;;;;5072326;28;19932;-77
2021/10/28 19:45:33;;;;;;;;;;;;;;;;;;5071812;28;19981;-78
2021/10/28 19:48:02;;;;;;;;;;;;;;;;;;5072068;28;19924;-76
2021/10/28 19:50:29;;;;;;;;;;;;;;;;;;5072064;28;20373;-76
2021/10/28 19:52:56;;;;;;;;;;;;;;;;;;5072165;28;20281;-78
2021/10/28 19:55:23;;;;;;;;;;;;;;;;;;5071875;28;20349;-76
2021/10/28 19:57:52;;;;;;;;;;;;;;;;;;5071798;28;20256;-76
2021/10/28 20:00:24;;;;;;;;;;;;;;;;;;5071654;28;19978;-76
2021/10/28 20:05:45;;;;;;;;;;;;;;;;;;5068024;28;19936;-77
2021/10/28 20:08:28;;;;;;;;;;;;;;;;;;5071642;28;20016;-76
2021/10/28 20:14:10;;;;;;;;;;;;;;;;;;5071591;28;20017;-77
2021/10/28 20:22:08;;;;;;;;;;;;;;;;;;5071373;28;19979;-77
2021/10/28 20:24:35;;;;;;;;;;;;;;;;;;5071520;28;19928;-77
2021/10/28 20:27:03;;;;;;;;;;;;;;;;;;5071600;28;19928;-76
2021/10/28 20:29:30;;;;;;;;;;;;;;;;;;5071633;28;20031;-76
2021/10/28 20:31:57;;;;;;;;;;;;;;;;;;5071658;28;19987;-77
2021/10/28 20:34:31;;;;;;;;;;;;;;;;;;5071469;28;19951;-77
2021/10/28 20:37:08;;;;;;;;;;;;;;;;;;5071225;28;20341;-76
2021/10/28 20:39:38;;;;;;;;;;;;;;;;;;5071191;28;19947;-77
2021/10/28 20:42:06;;;;;;;;;;;;;;;;;;5071477;28;19924;-76
2021/10/28 20:44:33;;;;;;;;;;;;;;;;;;5071646;28;19925;-76
2021/10/28 20:47:00;;;;;;;;;;;;;;;;;;5075465;28;19928;-76
2021/10/28 20:49:28;;;;;;;;;;;;;;;;;;5075140;28;19928;-76
2021/10/28 20:51:55;;;;;;;;;;;;;;;;;;5075284;28;20410;-76
2021/10/28 20:54:22;;;;;;;;;;;;;;;;;;5075250;28;19928;-75
2021/10/28 20:56:52;;;;;;;;;;;;;;;;;;5075303;28;19924;-75
2021/10/28 20:59:20;;;;;;;;;;;;;;;;;;5075508;28;20410;-76
2021/10/28 21:01:47;;;;;;;;;;;;;;;;;;5075214;28;20353;-76
2021/10/28 21:04:14;;;;;;;;;;;;;;;;;;5075481;28;19924;-76
2021/10/28 21:06:41;;;;;;;;;;;;;;;;;;5074690;28;20246;-76
2021/10/28 21:09:09;;;;;;;;;;;;;;;;;;5075109;28;19925;-76
2021/10/28 21:11:37;;;;;;;;;;;;;;;;;;5074833;28;19940;-76
2021/10/28 21:14:06;;;;;;;;;;;;;;;;;;5075230;28;20257;-76
2021/10/28 21:16:35;;;;;;;;;;;;;;;;;;5074830;28;19925;-77
2021/10/28 21:19:03;;;;;;;;;;;;;;;;;;5074946;28;19939;-76
2021/10/28 21:21:32;;;;;;;;;;;;;;;;;;5074955;28;20321;-76
2021/10/28 21:23:59;;;;;;;;;;;;;;;;;;5074450;28;20371;-76
2021/10/28 21:26:27;;;;;;;;;;;;;;;;;;5074772;28;19924;-77
2021/10/28 21:28:54;;;;;;;;;;;;;;;;;;5074763;28;19925;-78
2021/10/28 21:31:22;;;;;;;;;;;;;;;;;;5075054;28;19932;-77
2021/10/28 21:33:49;;;;;;;;;;;;;;;;;;5074919;28;19924;-76
2021/10/28 21:36:17;;;;;;;;;;;;;;;;;;5074278;28;19924;-76
2021/10/28 21:38:44;;;;;;;;;;;;;;;;;;5074645;28;19943;-75
2021/10/28 21:41:11;;;;;;;;;;;;;;;;;;5074631;28;19939;-76
2021/10/28 21:43:38;;;;;;;;;;;;;;;;;;5074516;28;19936;-76
2021/10/28 21:46:06;;;;;;;;;;;;;;;;;;5074454;28;19932;-76
2021/10/28 21:48:34;;;;;;;;;;;;;;;;;;5074183;28;19932;-76
2021/10/28 21:51:03;;;;;;;;;;;;;;;;;;5074599;28;19969;-76
2021/10/28 21:53:34;;;;;;;;;;;;;;;;;;5074401;28;20277;-75
2021/10/28 21:56:10;;;;;;;;;;;;;;;;;;5074248;28;20354;-76
2021/10/28 21:58:49;;;;;;;;;;;;;;;;;;5074680;28;19929;-75
2021/10/28 22:01:20;;;;;;;;;;;;;;;;;;5074133;28;20026;-76
2021/10/28 22:04:05;;;;;;;;;;;;;;;;;;5074032;28;20187;-77
2021/10/28 22:25:49;;;;;;;;;;;;;;;;;;5073665;28;20038;-76
2021/10/28 22:28:16;;;;;;;;;;;;;;;;;;5073700;28;19931;-77
2021/10/28 22:30:43;;;;;;;;;;;;;;;;;;5073542;28;20277;-77
2021/10/28 22:33:10;;;;;;;;;;;;;;;;;;5073661;28;19924;-76
2021/10/28 22:35:47;;;;;;;;;;;;;;;;;;5073169;28;20047;-76
2021/10/28 22:38:14;;;;;;;;;;;;;;;;;;5073237;28;20468;-77
2021/10/28 22:40:45;;;;;;;;;;;;;;;;;;5073427;28;19925;-76
2021/10/28 22:43:13;;;;;;;;;;;;;;;;;;5073450;28;20380;-77
2021/10/28 22:45:42;;;;;;;;;;;;;;;;;;5073313;28;19925;-76
2021/10/28 22:48:09;;;;;;;;;;;;;;;;;;5073462;28;19935;-77
2021/10/28 22:50:37;;;;;;;;;;;;;;;;;;5073638;28;19925;-76
2021/10/28 22:53:06;;;;;;;;;;;;;;;;;;5073121;28;20268;-76
2021/10/28 22:55:37;;;;;;;;;;;;;;;;;;5073102;28;19946;-75
2021/10/28 22:58:09;;;;;;;;;;;;;;;;;;5073170;28;19958;-75
2021/10/28 23:00:44;;;;;;;;;;;;;;;;;;5072796;28;20383;-77
2021/10/28 23:03:18;;;;;;;;;;;;;;;;;;5072928;28;19982;-76
2021/10/28 23:06:06;;;;;;;;;;;;;;;;;;5072772;28;19936;-76
2021/10/28 23:11:41;;;;;;;;;;;;;;;;;;5072944;28;19935;-76
2021/10/28 23:14:27;;;;;;;;;;;;;;;;;;5064103;28;20021;-76
2021/10/28 23:22:47;;;;;;;;;;;;;;;;;;5086795;28;19935;-77
2021/10/28 23:25:14;;;;;;;;;;;;;;;;;;5103990;28;19923;-78
2021/10/28 23:27:42;;;;;;;;;;;;;;;;;;5109537;28;19928;-78
2021/10/28 23:30:09;;;;;;;;;;;;;;;;;;5109058;28;20027;-78
2021/10/28 23:32:37;;;;;;;;;;;;;;;;;;5109402;28;19939;-76
2021/10/28 23:35:06;;;;;;;;;;;;;;;;;;5109503;28;19924;-77
2021/10/28 23:37:33;;;;;;;;;;;;;;;;;;5108586;28;19928;-77
2021/10/28 23:40:00;;;;;;;;;;;;;;;;;;5109381;28;19943;-78
2021/10/28 23:42:27;;;;;;;;;;;;;;;;;;5109219;28;19967;-78
2021/10/28 23:44:54;;;;;;;;;;;;;;;;;;5109539;28;19970;-78
2021/10/28 23:47:21;;;;;;;;;;;;;;;;;;5109226;28;19927;-77
2021/10/28 23:49:48;;;;;;;;;;;;;;;;;;5108560;28;19928;-78
2021/10/28 23:52:17;;;;;;;;;;;;;;;;;;5108945;28;20476;-76
2021/10/28 23:54:44;;;;;;;;;;;;;;;;;;5108564;28;19928;-77
2021/10/28 23:57:11;;;;;;;;;;;;;;;;;;5109135;28;19924;-78
2021/10/28 23:59:38;;;;;;;;;;;;;;;;;;5108631;28;19935;-77
